createdAt,value
2022-08-01T00:01:02.771Z,21.49
2022-08-01T00:03:24.230Z,21.56
2022-08-01T00:05:46.408Z,21.47
2022-08-01T00:08:07.857Z,21.49
2022-08-01T00:10:29.350Z,21.47
2022-08-01T00:12:51.502Z,21.43
2022-08-01T00:15:14.960Z,21.48
2022-08-01T00:17:36.749Z,21.49
2022-08-01T00:19:58.409Z,21.56
2022-08-01T00:22:19.947Z,21.49
2022-08-01T00:24:41.468Z,21.48
2022-08-01T00:27:03.117Z,21.51
2022-08-01T00:30:09.447Z,21.56
2022-08-01T00:32:06.575Z,21.57
2022-08-01T00:34:28.296Z,21.63
2022-08-01T00:36:49.800Z,21.70
2022-08-01T00:39:11.310Z,21.66
2022-08-01T00:41:32.787Z,21.66
2022-08-01T00:43:54.336Z,21.65
2022-08-01T00:46:16.015Z,21.71
2022-08-01T00:48:37.551Z,21.71
2022-08-01T00:50:59.286Z,21.74
2022-08-01T00:53:20.782Z,21.70
2022-08-01T00:55:43.719Z,21.71
2022-08-01T00:58:06.567Z,21.74
2022-08-01T01:00:28.605Z,21.87
2022-08-01T01:02:50.161Z,21.75
2022-08-01T01:05:11.813Z,21.64
2022-08-01T01:07:54.685Z,21.60
2022-08-01T01:10:29.736Z,21.60
2022-08-01T01:13:04.628Z,21.62
2022-08-01T01:15:42.565Z,21.64
2022-08-01T01:18:35.572Z,21.67
2022-08-01T01:21:18.833Z,21.60
2022-08-01T01:23:55.475Z,21.54
2022-08-01T01:26:50.705Z,21.55
2022-08-01T01:29:17.376Z,21.58
2022-08-01T01:31:47.178Z,21.60
2022-08-01T01:34:11.511Z,21.60
2022-08-01T01:36:34.747Z,21.55
2022-08-01T01:38:57.208Z,21.57
2022-08-01T01:41:19.761Z,21.63
2022-08-01T01:43:42.274Z,21.72
2022-08-01T01:46:05.616Z,21.55
2022-08-01T01:48:28.749Z,21.44
2022-08-01T01:50:52.208Z,21.41
2022-08-01T01:53:16.138Z,21.37
2022-08-01T01:55:49.290Z,21.38
2022-08-01T01:58:14.077Z,21.37
2022-08-01T02:00:38.173Z,21.38
2022-08-01T02:03:03.622Z,21.40
2022-08-01T02:05:27.184Z,21.34
2022-08-01T02:07:50.425Z,21.35
2022-08-01T02:10:13.218Z,21.24
2022-08-01T02:12:37.596Z,21.15
2022-08-01T02:14:59.774Z,21.19
2022-08-01T02:17:23.352Z,21.23
2022-08-01T02:19:45.672Z,21.23
2022-08-01T02:22:11.979Z,21.22
2022-08-01T02:24:39.681Z,21.15
2022-08-01T02:27:04.366Z,21.16
2022-08-01T02:29:32.478Z,21.16
2022-08-01T02:31:55.715Z,21.17
2022-08-01T02:38:02.341Z,21.24
2022-08-01T02:40:24.941Z,21.21
2022-08-01T02:42:50.849Z,21.23
2022-08-01T02:45:13.823Z,21.26
2022-08-01T02:47:38.505Z,21.49
2022-08-01T02:50:01.815Z,21.53
2022-08-01T02:52:26.899Z,21.36
2022-08-01T02:54:52.450Z,21.32
2022-08-01T02:57:15.181Z,21.35
2022-08-01T02:59:41.406Z,21.48
2022-08-01T03:02:06.145Z,21.31
2022-08-01T03:04:33.529Z,21.26
2022-08-01T03:06:59.359Z,21.29
2022-08-01T03:09:22.472Z,21.35
2022-08-01T03:11:46.379Z,21.22
2022-08-01T03:14:10.091Z,21.21
2022-08-01T03:16:34.174Z,21.13
2022-08-01T03:18:57.873Z,21.05
2022-08-01T03:21:22.837Z,20.94
2022-08-01T03:23:46.765Z,20.90
2022-08-01T03:26:09.148Z,20.90
2022-08-01T03:28:31.699Z,21.12
2022-08-01T03:30:54.432Z,21.16
2022-08-01T03:33:15.974Z,21.22
2022-08-01T03:35:43.658Z,21.21
2022-08-01T03:38:17.228Z,21.09
2022-08-01T03:40:42.138Z,20.95
2022-08-01T03:43:08.278Z,21.08
2022-08-01T03:45:35.538Z,21.01
2022-08-01T03:48:01.608Z,20.91
2022-08-01T03:50:25.928Z,20.96
2022-08-01T03:52:48.147Z,20.90
2022-08-01T03:55:12.350Z,21.06
2022-08-01T03:57:36.184Z,21.05
2022-08-01T04:00:00.185Z,21.02
2022-08-01T04:02:23.805Z,20.91
2022-08-01T04:04:46.254Z,20.81
2022-08-01T04:07:32.258Z,20.78
2022-08-01T04:09:53.954Z,20.89
2022-08-01T04:12:15.470Z,20.89
2022-08-01T04:14:36.975Z,20.90
2022-08-01T04:16:58.450Z,20.97
2022-08-01T04:19:19.947Z,21.06
2022-08-01T04:21:41.501Z,21.14
2022-08-01T04:24:10.082Z,21.06
2022-08-01T04:26:35.337Z,21.04
2022-08-01T04:28:57.520Z,21.02
2022-08-01T04:31:20.326Z,21.07
2022-08-01T04:33:46.651Z,21.01
2022-08-01T04:36:12.026Z,21.12
2022-08-01T04:38:37.779Z,21.15
2022-08-01T04:41:08.933Z,21.21
2022-08-01T04:43:31.685Z,21.20
2022-08-01T04:45:53.766Z,21.23
2022-08-01T04:48:18.734Z,21.27
2022-08-01T04:50:42.910Z,21.42
2022-08-01T04:53:04.737Z,21.47
2022-08-01T04:55:26.182Z,21.56
2022-08-01T04:57:48.165Z,21.46
2022-08-01T05:00:09.858Z,21.52
2022-08-01T05:02:31.857Z,21.49
2022-08-01T05:04:53.302Z,21.59
2022-08-01T05:07:14.987Z,21.65
2022-08-01T05:09:37.123Z,21.51
2022-08-01T05:12:02.940Z,21.59
2022-08-01T05:14:26.505Z,21.60
2022-08-01T05:16:47.991Z,21.43
2022-08-01T05:19:09.712Z,21.45
2022-08-01T05:21:31.154Z,21.46
2022-08-01T05:23:52.905Z,21.41
2022-08-01T05:26:15.774Z,21.56
2022-08-01T05:28:37.246Z,21.50
2022-08-01T05:30:58.728Z,21.44
2022-08-01T05:33:21.746Z,21.41
2022-08-01T05:35:48.938Z,21.24
2022-08-01T05:38:14.125Z,21.15
2022-08-01T05:40:36.826Z,21.04
2022-08-01T05:42:58.274Z,21.02
2022-08-01T05:45:19.791Z,21.02
2022-08-01T05:47:43.153Z,21.10
2022-08-01T05:50:05.199Z,21.39
2022-08-01T05:52:26.713Z,21.33
2022-08-01T05:54:48.267Z,21.27
2022-08-01T05:57:09.725Z,21.23
2022-08-01T05:59:32.664Z,21.28
2022-08-01T06:01:54.233Z,21.33
2022-08-01T06:04:16.124Z,21.60
2022-08-01T06:06:37.576Z,21.83
2022-08-01T06:08:59.044Z,21.75
2022-08-01T06:11:20.484Z,21.99
2022-08-01T06:13:44.948Z,22.16
2022-08-01T06:16:10.121Z,22.10
2022-08-01T06:18:31.590Z,22.06
2022-08-01T06:20:53.098Z,22.09
2022-08-01T06:23:31.884Z,22.17
2022-08-01T06:25:55.473Z,21.97
2022-08-01T06:28:16.929Z,22.03
2022-08-01T06:33:01.010Z,21.94
2022-08-01T06:35:22.849Z,22.02
2022-08-01T06:37:46.024Z,21.99
2022-08-01T06:40:16.276Z,21.92
2022-08-01T06:42:39.746Z,22.01
2022-08-01T06:45:01.290Z,22.13
2022-08-01T06:47:22.741Z,22.00
2022-08-01T06:49:44.202Z,22.00
2022-08-01T06:54:27.545Z,22.09
2022-08-01T06:56:49.016Z,22.09
2022-08-01T06:59:10.526Z,22.06
2022-08-01T07:01:35.080Z,22.29
2022-08-01T07:03:56.851Z,22.39
2022-08-01T07:06:18.317Z,22.40
2022-08-01T07:08:39.759Z,22.42
2022-08-01T07:11:02.897Z,22.41
2022-08-01T07:13:25.985Z,22.60
2022-08-01T07:16:05.730Z,22.74
2022-08-01T07:18:27.200Z,22.69
2022-08-01T07:20:51.940Z,22.54
2022-08-01T07:23:14.494Z,22.60
2022-08-01T07:25:36.360Z,22.45
2022-08-01T07:27:57.862Z,22.27
2022-08-01T07:30:19.329Z,22.41
2022-08-01T07:32:40.860Z,22.20
2022-08-01T07:35:06.209Z,22.22
2022-08-01T07:37:45.489Z,22.16
2022-08-01T07:40:09.947Z,21.92
2022-08-01T07:42:33.215Z,21.99
2022-08-01T07:44:54.761Z,22.16
2022-08-01T07:47:16.803Z,22.29
2022-08-01T07:49:40.707Z,22.26
2022-08-01T07:52:04.318Z,22.56
2022-08-01T07:54:33.559Z,22.70
2022-08-01T07:56:56.586Z,23.08
2022-08-01T07:59:26.020Z,23.15
2022-08-01T08:01:47.902Z,23.28
2022-08-01T08:04:09.957Z,23.45
2022-08-01T08:06:31.430Z,23.67
2022-08-01T08:08:54.481Z,23.65
2022-08-01T08:11:15.970Z,23.50
2022-08-01T08:13:38.189Z,23.54
2022-08-01T08:16:00.824Z,23.41
2022-08-01T08:18:22.286Z,23.49
2022-08-01T08:20:44.898Z,23.25
2022-08-01T08:23:42.546Z,23.06
2022-08-01T08:26:05.169Z,23.06
2022-08-01T08:28:28.318Z,22.90
2022-08-01T08:30:49.891Z,22.85
2022-08-01T08:33:13.819Z,22.90
2022-08-01T08:35:40.382Z,23.01
2022-08-01T08:38:15.109Z,22.98
2022-08-01T08:40:38.048Z,23.14
2022-08-01T08:43:03.151Z,23.28
2022-08-01T08:45:56.614Z,23.49
2022-08-01T08:48:07.201Z,23.68
2022-08-01T08:50:29.133Z,23.91
2022-08-01T08:52:51.679Z,24.11
2022-08-01T08:55:15.628Z,24.32
2022-08-01T08:57:40.762Z,24.53
2022-08-01T09:00:02.553Z,24.81
2022-08-01T09:02:24.059Z,24.86
2022-08-01T09:04:47.867Z,24.93
2022-08-01T09:07:09.826Z,24.81
2022-08-01T09:09:34.002Z,24.92
2022-08-01T09:12:07.259Z,25.00
2022-08-01T09:14:31.027Z,25.05
2022-08-01T09:17:07.503Z,25.08
2022-08-01T09:19:41.782Z,25.01
2022-08-01T09:22:06.411Z,25.10
2022-08-01T09:24:30.873Z,25.18
2022-08-01T09:26:53.474Z,25.49
2022-08-01T09:29:37.042Z,25.48
2022-08-01T09:32:00.639Z,25.50
2022-08-01T09:34:29.369Z,25.32
2022-08-01T09:36:54.277Z,25.28
2022-08-01T09:39:16.280Z,25.46
2022-08-01T09:41:40.078Z,25.42
2022-08-01T09:44:01.880Z,25.58
2022-08-01T09:46:23.561Z,25.77
2022-08-01T09:49:07.564Z,25.77
2022-08-01T09:51:59.932Z,26.15
2022-08-01T09:54:30.439Z,26.32
2022-08-01T09:56:52.136Z,26.71
2022-08-01T09:59:13.884Z,27.22
2022-08-01T10:01:49.335Z,27.24
2022-08-01T10:04:17.449Z,27.38
2022-08-01T10:06:43.958Z,27.49
2022-08-01T10:09:05.847Z,27.40
2022-08-01T10:11:36.177Z,27.29
2022-08-01T10:14:00.024Z,26.94
2022-08-01T10:16:21.962Z,26.88
2022-08-01T10:18:45.960Z,26.80
2022-08-01T10:21:10.934Z,26.58
2022-08-01T10:23:40.892Z,26.18
2022-08-01T10:26:04.544Z,26.21
2022-08-01T10:28:27.497Z,26.30
2022-08-01T10:30:49.842Z,26.41
2022-08-01T10:33:15.277Z,26.64
2022-08-01T10:35:53.343Z,27.07
2022-08-01T10:38:15.450Z,27.06
2022-08-01T10:40:38.818Z,27.00
2022-08-01T10:43:01.888Z,27.06
2022-08-01T10:45:24.767Z,27.18
2022-08-01T10:48:15.927Z,27.54
2022-08-01T10:50:48.839Z,27.66
2022-08-01T10:53:16.413Z,27.72
2022-08-01T10:55:53.536Z,27.73
2022-08-01T10:58:42.933Z,27.48
2022-08-01T11:01:23.668Z,27.26
2022-08-01T11:04:06.195Z,26.95
2022-08-01T11:06:33.679Z,26.74
2022-08-01T11:08:55.614Z,26.81
2022-08-01T11:11:17.506Z,26.69
2022-08-01T11:13:58.817Z,26.56
2022-08-01T11:16:28.897Z,26.62
2022-08-01T11:18:53.465Z,26.67
2022-08-01T11:21:56.837Z,26.98
2022-08-01T11:23:57.657Z,27.08
2022-08-01T11:26:29.243Z,27.65
2022-08-01T11:29:21.512Z,27.71
2022-08-01T11:31:43.770Z,27.91
2022-08-01T11:34:06.486Z,27.97
2022-08-01T11:36:55.917Z,28.21
2022-08-01T11:39:13.515Z,28.53
2022-08-01T11:41:39.103Z,29.06
2022-08-01T11:44:03.824Z,28.98
2022-08-01T11:47:00.647Z,29.02
2022-08-01T11:49:41.262Z,28.88
2022-08-01T11:52:08.572Z,28.95
2022-08-01T11:54:34.847Z,29.03
2022-08-01T11:57:04.516Z,28.78
2022-08-01T11:59:27.249Z,28.94
2022-08-01T12:01:59.622Z,28.89
2022-08-01T12:04:21.204Z,29.35
2022-08-01T12:06:43.165Z,29.35
2022-08-01T12:09:23.116Z,29.41
2022-08-01T12:11:44.748Z,29.62
2022-08-01T12:14:07.697Z,29.90
2022-08-01T12:16:33.296Z,29.99
2022-08-01T12:18:55.467Z,30.36
2022-08-01T12:21:17.045Z,30.46
2022-08-01T12:23:38.611Z,30.68
2022-08-01T12:26:01.369Z,30.70
2022-08-01T12:28:23.734Z,30.88
2022-08-01T12:30:49.357Z,30.95
2022-08-01T12:33:11.511Z,31.22
2022-08-01T12:35:34.388Z,31.45
2022-08-01T12:37:59.412Z,32.24
2022-08-01T12:40:23.598Z,32.64
2022-08-01T12:42:50.201Z,33.24
2022-08-01T12:45:16.105Z,33.74
2022-08-01T12:47:39.282Z,34.87
2022-08-01T12:50:00.833Z,35.29
2022-08-01T12:52:26.822Z,35.38
2022-08-01T12:55:01.916Z,35.71
2022-08-01T12:57:26.457Z,34.57
2022-08-01T12:59:47.914Z,34.16
2022-08-01T13:02:09.884Z,33.21
2022-08-01T13:04:31.476Z,32.79
2022-08-01T13:06:56.018Z,32.71
2022-08-01T13:09:17.551Z,32.47
2022-08-01T13:11:39.062Z,32.79
2022-08-01T13:14:30.727Z,33.44
2022-08-01T13:16:57.084Z,34.07
2022-08-01T13:19:19.427Z,34.51
2022-08-01T13:21:55.018Z,34.78
2022-08-01T13:24:16.701Z,34.94
2022-08-01T13:26:53.116Z,34.96
2022-08-01T13:29:16.627Z,35.35
2022-08-01T13:31:39.587Z,35.37
2022-08-01T13:34:01.288Z,35.39
2022-08-01T13:36:28.276Z,35.40
2022-08-01T13:39:08.715Z,35.37
2022-08-01T13:41:34.259Z,35.06
2022-08-01T13:43:58.617Z,35.35
2022-08-01T13:46:20.941Z,35.89
2022-08-01T13:48:42.464Z,36.04
2022-08-01T13:51:21.490Z,36.40
2022-08-01T13:53:43.882Z,36.19
2022-08-01T13:56:05.422Z,36.80
2022-08-01T13:58:26.911Z,36.91
2022-08-01T14:00:48.544Z,37.29
2022-08-01T14:03:10.968Z,36.60
2022-08-01T14:05:32.467Z,37.03
2022-08-01T14:07:56.582Z,36.74
2022-08-01T14:10:20.485Z,36.81
2022-08-01T14:12:42.275Z,37.21
2022-08-01T14:15:08.067Z,37.52
2022-08-01T14:17:29.553Z,37.37
2022-08-01T14:19:51.391Z,36.85
2022-08-01T14:22:12.962Z,35.88
2022-08-01T14:24:34.462Z,35.39
2022-08-01T14:26:55.917Z,34.56
2022-08-01T14:29:17.386Z,34.53
2022-08-01T14:31:39.948Z,34.94
2022-08-01T14:34:01.780Z,35.09
2022-08-01T14:36:30.139Z,35.38
2022-08-01T14:38:52.876Z,35.50
2022-08-01T14:41:17.229Z,35.75
2022-08-01T14:43:39.502Z,35.82
2022-08-01T14:46:02.076Z,35.23
2022-08-01T14:48:23.531Z,34.75
2022-08-01T14:50:45.390Z,34.66
2022-08-01T14:53:06.840Z,34.82
2022-08-01T14:55:28.346Z,35.11
2022-08-01T14:57:50.122Z,35.01
2022-08-01T15:00:13.822Z,35.25
2022-08-01T15:02:35.343Z,35.31
2022-08-01T15:04:56.778Z,35.41
2022-08-01T15:07:18.923Z,35.23
2022-08-01T15:09:40.812Z,34.63
2022-08-01T15:12:02.248Z,34.27
2022-08-01T15:14:42.038Z,33.96
2022-08-01T15:17:03.773Z,33.49
2022-08-01T15:19:25.267Z,33.00
2022-08-01T15:21:46.736Z,32.36
2022-08-01T15:24:08.796Z,31.96
2022-08-01T15:26:30.732Z,31.80
2022-08-01T15:28:52.909Z,32.48
2022-08-01T15:31:14.547Z,33.05
2022-08-01T15:33:36.036Z,33.50
2022-08-01T15:35:57.508Z,34.04
2022-08-01T15:38:20.252Z,34.50
2022-08-01T15:40:41.712Z,34.27
2022-08-01T15:43:03.781Z,33.97
2022-08-01T15:45:46.429Z,33.52
2022-08-01T15:48:07.695Z,33.29
2022-08-01T15:50:29.244Z,33.12
2022-08-01T15:52:50.712Z,32.87
2022-08-01T15:55:12.177Z,32.54
2022-08-01T15:57:33.658Z,32.40
2022-08-01T15:59:55.154Z,31.98
2022-08-01T16:02:16.768Z,31.79
2022-08-01T16:04:38.794Z,31.63
2022-08-01T16:07:01.187Z,31.52
2022-08-01T16:09:24.317Z,31.38
2022-08-01T16:11:50.975Z,31.51
2022-08-01T16:14:12.791Z,31.14
2022-08-01T16:16:34.335Z,30.99
2022-08-01T16:18:55.782Z,30.96
2022-08-01T16:21:18.165Z,30.65
2022-08-01T16:23:41.164Z,30.66
2022-08-01T16:26:02.655Z,30.51
2022-08-01T16:28:24.667Z,30.29
2022-08-01T16:30:47.972Z,30.25
2022-08-01T16:33:20.582Z,30.85
2022-08-01T16:35:57.734Z,31.35
2022-08-01T16:38:22.095Z,31.74
2022-08-01T16:40:47.629Z,31.94
2022-08-01T16:43:09.902Z,32.07
2022-08-01T16:45:32.492Z,32.57
2022-08-01T16:47:54.731Z,32.60
2022-08-01T16:50:17.014Z,32.57
2022-08-01T16:52:41.997Z,32.32
2022-08-01T16:55:04.989Z,32.19
2022-08-01T16:57:27.474Z,31.84
2022-08-01T16:59:48.943Z,31.27
2022-08-01T17:02:11.139Z,31.25
2022-08-01T17:04:32.901Z,31.06
2022-08-01T17:06:54.392Z,31.00
2022-08-01T17:09:16.626Z,31.36
2022-08-01T17:11:38.521Z,31.34
2022-08-01T17:14:00.019Z,31.12
2022-08-01T17:16:22.078Z,30.92
2022-08-01T17:18:43.619Z,30.68
2022-08-01T17:21:05.142Z,30.30
2022-08-01T17:23:26.818Z,30.19
2022-08-01T17:25:48.352Z,29.81
2022-08-01T17:28:10.452Z,29.80
2022-08-01T17:30:31.983Z,29.62
2022-08-01T17:32:53.464Z,29.43
2022-08-01T17:35:16.131Z,29.16
2022-08-01T17:37:38.410Z,29.03
2022-08-01T17:40:01.484Z,29.01
2022-08-01T17:42:27.152Z,28.91
2022-08-01T17:44:49.068Z,28.79
2022-08-01T17:47:10.906Z,28.62
2022-08-01T17:49:54.229Z,28.53
2022-08-01T17:52:13.814Z,28.43
2022-08-01T17:54:35.816Z,28.49
2022-08-01T17:56:57.283Z,28.47
2022-08-01T17:59:18.731Z,28.48
2022-08-01T18:01:45.151Z,28.52
2022-08-01T18:04:07.107Z,28.35
2022-08-01T18:06:29.044Z,28.36
2022-08-01T18:08:53.017Z,28.16
2022-08-01T18:11:16.118Z,27.93
2022-08-01T18:13:40.592Z,27.80
2022-08-01T18:16:06.295Z,27.51
2022-08-01T18:18:33.191Z,27.31
2022-08-01T18:20:55.559Z,27.08
2022-08-01T18:23:20.558Z,26.86
2022-08-01T18:25:42.878Z,26.73
2022-08-01T18:28:23.491Z,26.62
2022-08-01T18:30:46.355Z,26.61
2022-08-01T18:33:07.815Z,26.52
2022-08-01T18:35:51.580Z,26.40
2022-08-01T18:38:10.710Z,26.35
2022-08-01T18:40:32.180Z,26.28
2022-08-01T18:42:54.416Z,26.09
2022-08-01T18:45:15.947Z,25.98
2022-08-01T18:47:37.813Z,25.77
2022-08-01T18:49:59.493Z,25.64
2022-08-01T18:52:20.962Z,25.52
2022-08-01T18:54:51.753Z,25.48
2022-08-01T18:57:13.217Z,25.43
2022-08-01T18:59:34.700Z,25.35
2022-08-01T19:02:01.580Z,25.13
2022-08-01T19:04:23.246Z,25.03
2022-08-01T19:06:47.424Z,24.93
2022-08-01T19:09:09.348Z,24.86
2022-08-01T19:11:33.032Z,24.81
2022-08-01T19:13:55.247Z,24.74
2022-08-01T19:16:16.779Z,24.74
2022-08-01T19:18:40.050Z,24.61
2022-08-01T19:21:04.437Z,24.59
2022-08-01T19:23:44.259Z,24.49
2022-08-01T19:26:12.476Z,24.39
2022-08-01T19:28:43.149Z,24.31
2022-08-01T19:31:07.122Z,24.31
2022-08-01T19:33:30.437Z,24.26
2022-08-01T19:35:52.926Z,24.24
2022-08-01T19:38:15.216Z,24.16
2022-08-01T19:40:38.950Z,24.15
2022-08-01T19:43:02.762Z,24.14
2022-08-01T19:45:28.459Z,24.11
2022-08-01T19:47:57.338Z,24.05
2022-08-01T19:50:19.232Z,24.05
2022-08-01T19:52:44.554Z,24.08
2022-08-01T19:55:07.457Z,24.08
2022-08-01T19:57:44.616Z,24.07
2022-08-01T20:00:07.913Z,23.98
2022-08-01T20:02:32.642Z,23.96
2022-08-01T20:04:54.168Z,23.79
2022-08-01T20:07:15.976Z,23.67
2022-08-01T20:09:39.651Z,23.62
2022-08-01T20:12:01.244Z,23.57
2022-08-01T20:14:24.775Z,23.55
2022-08-01T20:16:47.456Z,23.53
2022-08-01T20:19:08.981Z,23.45
2022-08-01T20:21:32.759Z,23.45
2022-08-01T20:24:02.419Z,23.41
2022-08-01T20:26:27.050Z,23.37
2022-08-01T20:28:49.530Z,23.32
2022-08-01T20:31:11.706Z,23.25
2022-08-01T20:33:35.278Z,23.11
2022-08-01T20:35:57.456Z,23.04
2022-08-01T20:38:25.326Z,23.00
2022-08-01T20:40:51.394Z,23.02
2022-08-01T20:43:13.870Z,22.93
2022-08-01T20:45:35.566Z,22.87
2022-08-01T20:47:59.486Z,22.88
2022-08-01T20:50:52.718Z,22.90
2022-08-01T20:53:15.906Z,22.82
2022-08-01T20:55:54.321Z,22.90
2022-08-01T20:58:27.574Z,22.77
2022-08-01T21:00:54.233Z,22.70
2022-08-01T21:03:21.228Z,22.62
2022-08-01T21:05:55.504Z,22.50
2022-08-01T21:08:32.942Z,22.43
2022-08-01T21:10:57.914Z,22.37
2022-08-01T21:13:33.756Z,22.32
2022-08-01T21:16:22.948Z,22.28
2022-08-01T21:19:19.083Z,22.30
2022-08-01T21:21:48.345Z,22.01
2022-08-01T21:24:17.877Z,21.89
2022-08-01T21:26:40.978Z,21.87
2022-08-01T21:29:07.683Z,21.81
2022-08-01T21:31:41.008Z,21.81
2022-08-01T21:34:05.217Z,21.80
2022-08-01T21:36:27.907Z,21.78
2022-08-01T21:38:53.477Z,21.77
2022-08-01T21:41:17.470Z,21.93
2022-08-01T21:44:01.254Z,21.67
2022-08-01T21:46:22.807Z,21.58
2022-08-01T21:48:47.186Z,21.51
2022-08-01T21:51:52.364Z,21.41
2022-08-01T21:54:31.667Z,21.21
2022-08-01T21:57:12.768Z,21.20
2022-08-01T21:59:47.060Z,21.02
2022-08-01T22:02:25.486Z,20.95
2022-08-01T22:05:04.203Z,20.93
2022-08-01T22:07:26.790Z,21.01
2022-08-01T22:09:50.041Z,21.03
2022-08-01T22:12:17.609Z,20.95
2022-08-01T22:14:42.500Z,20.90
2022-08-01T22:17:03.969Z,20.84
2022-08-01T22:19:44.388Z,20.73
2022-08-01T22:22:44.536Z,20.70
2022-08-01T22:24:50.961Z,20.78
2022-08-01T22:27:23.622Z,20.93
2022-08-01T22:30:07.068Z,20.68
2022-08-01T22:32:36.078Z,20.67
2022-08-01T22:34:59.666Z,20.75
2022-08-01T22:37:56.213Z,20.68
2022-08-01T22:40:08.877Z,20.73
2022-08-01T22:42:45.454Z,20.87
2022-08-01T22:45:14.002Z,20.76
2022-08-01T22:47:49.925Z,20.67
2022-08-01T22:50:36.115Z,20.72
2022-08-01T22:53:44.769Z,20.67
2022-08-01T22:56:09.200Z,20.61
2022-08-01T22:58:31.038Z,20.64
2022-08-01T23:00:57.857Z,20.73
2022-08-01T23:03:35.885Z,20.81
2022-08-01T23:06:00.295Z,20.68
2022-08-01T23:08:23.789Z,20.62
2022-08-01T23:10:46.646Z,20.63
2022-08-01T23:13:08.494Z,20.66
2022-08-01T23:15:30.527Z,20.55
2022-08-01T23:17:54.483Z,20.53
2022-08-01T23:20:17.650Z,20.63
2022-08-01T23:22:40.806Z,20.53
2022-08-01T23:25:06.651Z,20.38
2022-08-01T23:27:51.905Z,20.32
2022-08-01T23:30:10.830Z,20.25
2022-08-01T23:32:32.300Z,20.24
2022-08-01T23:34:53.762Z,20.24
2022-08-01T23:37:15.953Z,20.24
2022-08-01T23:39:37.674Z,20.19
2022-08-01T23:42:00.993Z,20.13
2022-08-01T23:44:25.846Z,20.11
2022-08-01T23:46:47.285Z,20.09
2022-08-01T23:49:08.772Z,20.06
2022-08-01T23:51:30.234Z,20.06
2022-08-01T23:53:52.034Z,20.04
2022-08-01T23:56:16.837Z,19.96
2022-08-01T23:58:42.758Z,19.92
